Time;durP1;ratioP1;P1;durP2;ratioP2;P2;SDS_P1;SDS_P2;PMS_P1;PMS_P2;Temp;Humidity;BMP_temperature;BMP_pressure;BME280_temperature;BME280_humidity;BME280_pressure;Samples;Min_cycle;Max_cycle;Signal;HPM_P1;HPM_P2
2021/09/10 00:00:26;;;;;;;9.23;3.30;;;16.80;83.30;;;;;;5076079;28;20032;-74
2021/09/10 00:02:52;;;;;;;9.98;3.78;;;16.80;83.80;;;;;;5076022;28;20059;-73
2021/09/10 00:05:18;;;;;;;10.52;3.83;;;16.80;84.20;;;;;;5076242;28;20082;-73
2021/09/10 00:07:44;;;;;;;9.98;3.58;;;16.80;84.70;;;;;;5075613;28;20033;-73
2021/09/10 00:10:10;;;;;;;6.57;3.63;;;16.70;85.30;;;;;;5076172;28;20024;-74
2021/09/10 00:12:36;;;;;;;7.47;3.97;;;16.60;85.70;;;;;;5057873;28;20029;-72
2021/09/10 00:15:03;;;;;;;13.70;4.60;;;16.50;86.20;;;;;;5075448;28;20052;-74
2021/09/10 00:17:29;;;;;;;16.08;4.95;;;16.30;85.30;;;;;;5075701;28;20037;-74
2021/09/10 00:19:55;;;;;;;12.55;5.00;;;16.10;84.00;;;;;;5075730;28;20029;-73
2021/09/10 00:22:21;;;;;;;7.25;4.63;;;;;;;;;;5057770;28;20037;-74
2021/09/10 00:24:48;;;;;;;20.67;6.05;;;;;;;;;;5057701;28;20433;-72
2021/09/10 00:27:14;;;;;;;14.23;4.90;;;16.10;84.70;;;;;;5075903;28;20075;-71
2021/09/10 00:29:41;;;;;;;15.48;4.82;;;15.90;86.00;;;;;;5057606;28;20435;-73
2021/09/10 00:32:07;;;;;;;11.90;4.70;;;15.90;85.90;;;;;;5057532;28;20380;-72
2021/09/10 00:34:32;;;;;;;8.90;4.68;;;16.00;86.90;;;;;;5075491;28;20027;-72
2021/09/10 00:36:59;;;;;;;15.10;4.40;;;16.00;87.00;;;;;;5057430;28;20581;-71
2021/09/10 00:39:25;;;;;;;11.75;4.20;;;16.00;87.00;;;;;;5075325;28;20392;-71
2021/09/10 00:41:51;;;;;;;8.55;4.00;;;16.10;87.10;;;;;;5074999;28;20029;-71
2021/09/10 00:44:19;;;;;;;9.70;4.35;;;16.00;86.80;;;;;;5075357;28;20059;-70
2021/09/10 00:46:45;;;;;;;7.30;3.70;;;16.00;87.80;;;;;;5057237;28;20162;-70
2021/09/10 00:49:11;;;;;;;7.07;3.88;;;16.00;88.10;;;;;;5075203;28;20197;-70
2021/09/10 00:51:38;;;;;;;9.23;4.07;;;15.90;88.10;;;;;;5075106;28;20028;-70
2021/09/10 00:54:04;;;;;;;5.03;3.33;;;16.00;87.90;;;;;;5075118;28;20020;-71
2021/09/10 00:56:30;;;;;;;4.72;3.03;;;16.00;88.00;;;;;;5057004;28;20032;-73
2021/09/10 00:58:57;;;;;;;9.23;3.10;;;15.90;88.10;;;;;;5074978;28;20028;-73
2021/09/10 01:01:23;;;;;;;7.55;4.10;;;15.90;88.20;;;;;;5074604;28;20059;-72
2021/09/10 01:03:50;;;;;;;11.27;3.85;;;16.00;88.10;;;;;;5056676;28;20079;-72
2021/09/10 01:06:16;;;;;;;12.20;5.03;;;15.90;87.60;;;;;;5074862;28;20068;-73
2021/09/10 01:08:43;;;;;;;10.82;4.35;;;16.00;87.50;;;;;;5056868;28;20059;-73
2021/09/10 01:11:09;;;;;;;9.10;3.95;;;16.00;87.60;;;;;;5074747;28;20029;-74
2021/09/10 01:13:36;;;;;;;5.40;3.42;;;15.90;87.80;;;;;;5074761;28;20035;-72
2021/09/10 01:16:02;;;;;;;7.05;3.90;;;;;;;;;;5074614;28;20047;-71
2021/09/10 01:18:28;;;;;;;9.65;3.58;;;15.90;87.90;;;;;;5074537;28;20491;-72
2021/09/10 01:20:54;;;;;;;6.00;3.40;;;15.80;88.80;;;;;;5074513;28;20060;-69
2021/09/10 01:23:20;;;;;;;10.90;3.85;;;15.90;88.20;;;;;;5056598;28;20366;-72
2021/09/10 01:25:46;;;;;;;9.52;4.00;;;15.90;88.30;;;;;;5074166;28;20086;-73
2021/09/10 01:28:12;;;;;;;11.82;4.20;;;15.80;88.70;;;;;;5074414;28;20035;-72
2021/09/10 01:30:38;;;;;;;8.32;4.45;;;15.90;88.00;;;;;;5056373;28;20052;-72
2021/09/10 01:33:08;;;;;;;4.75;3.53;;;15.80;87.70;;;;;;5074247;28;20028;-71
2021/09/10 01:35:35;;;;;;;11.05;3.90;;;15.80;87.70;;;;;;5056294;28;20048;-74
2021/09/10 01:38:01;;;;;;;9.15;4.55;;;15.80;87.50;;;;;;5056170;28;20033;-74
2021/09/10 01:40:27;;;;;;;11.82;4.57;;;15.70;87.30;;;;;;5074417;28;20035;-73
2021/09/10 01:42:54;;;;;;;11.32;4.28;;;15.70;87.40;;;;;;5056203;28;20487;-75
2021/09/10 01:45:21;;;;;;;9.93;3.78;;;15.70;88.10;;;;;;5056158;28;20024;-72
2021/09/10 01:47:47;;;;;;;10.52;4.32;;;15.60;88.60;;;;;;5074056;28;20033;-74
2021/09/10 01:50:15;;;;;;;7.15;3.92;;;;;;;;;;5074265;28;20039;-74
2021/09/10 01:52:41;;;;;;;13.68;4.07;;;15.50;88.60;;;;;;5055944;28;20070;-73
2021/09/10 01:55:08;;;;;;;9.38;4.00;;;15.50;89.20;;;;;;5073915;28;20027;-72
2021/09/10 01:57:35;;;;;;;4.32;3.25;;;15.50;88.90;;;;;;5073762;28;20078;-73
2021/09/10 02:00:02;;;;;;;14.18;5.05;;;15.50;88.80;;;;;;5073805;28;20032;-72
2021/09/10 02:02:28;;;;;;;6.78;4.18;;;15.50;88.90;;;;;;5073749;28;20094;-74
2021/09/10 02:04:54;;;;;;;9.50;4.53;;;15.50;89.30;;;;;;5073396;28;20033;-73
2021/09/10 02:07:20;;;;;;;9.13;4.55;;;;;;;;;;5073669;28;20041;-73
2021/09/10 02:09:46;;;;;;;9.40;4.40;;;15.40;89.30;;;;;;5073614;28;20099;-74
2021/09/10 02:25:40;;;;;;;10.68;5.07;;;14.80;91.50;;;;;;5072476;28;20055;-71
2021/09/10 02:28:06;;;;;;;9.35;4.63;;;14.70;91.60;;;;;;5055404;28;20388;-72
2021/09/10 02:30:34;;;;;;;7.13;4.18;;;14.70;91.70;;;;;;5055288;28;20040;-72
2021/09/10 02:33:00;;;;;;;8.13;4.10;;;14.70;91.80;;;;;;5073276;28;20031;-73
2021/09/10 02:35:27;;;;;;;10.63;5.05;;;14.80;92.00;;;;;;5073392;28;20823;-73
2021/09/10 02:37:53;;;;;;;11.27;4.35;;;14.70;92.10;;;;;;5073404;28;20029;-72
2021/09/10 02:40:21;;;;;;;11.13;3.97;;;14.80;92.00;;;;;;5073171;28;20368;-73
2021/09/10 02:42:48;;;;;;;6.30;3.70;;;14.90;91.70;;;;;;5073152;28;20024;-73
2021/09/10 02:45:13;;;;;;;8.20;3.90;;;14.90;91.80;;;;;;5055182;28;20035;-72
2021/09/10 02:47:40;;;;;;;11.93;4.13;;;14.90;91.70;;;;;;5073398;28;20033;-72
2021/09/10 02:50:10;;;;;;;15.18;5.15;;;14.80;92.00;;;;;;5073104;28;20021;-72
2021/09/10 02:52:36;;;;;;;15.10;5.27;;;14.70;92.30;;;;;;5054911;28;20116;-72
2021/09/10 02:55:04;;;;;;;11.20;5.00;;;14.50;92.80;;;;;;5055074;28;20274;-72
2021/09/10 02:57:29;;;;;;;7.80;4.30;;;14.50;92.50;;;;;;5072925;28;20124;-72
2021/09/10 02:59:55;;;;;;;8.15;4.35;;;14.50;92.50;;;;;;5073249;28;20099;-73
2021/09/10 03:02:21;;;;;;;9.73;5.30;;;14.60;92.50;;;;;;5072977;28;20345;-73
2021/09/10 03:04:47;;;;;;;7.85;5.20;;;14.50;92.40;;;;;;5054974;28;20485;-74
2021/09/10 03:07:15;;;;;;;13.52;5.30;;;14.50;92.60;;;;;;5072922;28;20020;-74
2021/09/10 03:09:41;;;;;;;10.55;4.75;;;14.50;92.90;;;;;;5054866;28;20028;-71
2021/09/10 03:12:08;;;;;;;17.13;5.68;;;14.40;93.10;;;;;;5054891;28;20024;-74
2021/09/10 03:14:34;;;;;;;12.43;5.47;;;14.30;93.10;;;;;;5072500;28;20048;-73
2021/09/10 03:17:00;;;;;;;8.38;6.05;;;14.20;93.40;;;;;;5054774;28;20453;-73
2021/09/10 03:19:28;;;;;;;9.23;6.20;;;14.20;93.10;;;;;;5072412;28;20039;-73
2021/09/10 03:21:54;;;;;;;14.98;7.35;;;14.20;93.50;;;;;;5072751;28;20028;-72
2021/09/10 03:24:21;;;;;;;14.65;7.05;;;14.00;94.00;;;;;;5076450;28;20036;-73
2021/09/10 03:26:48;;;;;;;10.35;6.88;;;13.80;94.40;;;;;;5058205;28;20048;-71
2021/09/10 03:29:14;;;;;;;15.02;7.55;;;13.70;94.50;;;;;;5076763;28;20024;-74
2021/09/10 03:31:40;;;;;;;9.70;6.97;;;13.40;94.50;;;;;;5076940;28;20480;-73
2021/09/10 03:34:06;;;;;;;15.32;6.80;;;13.40;94.20;;;;;;5058439;28;20074;-73
2021/09/10 03:36:32;;;;;;;10.13;7.00;;;13.30;94.00;;;;;;5058536;28;20518;-73
2021/09/10 03:38:58;;;;;;;12.80;6.68;;;13.30;94.10;;;;;;5076157;28;20074;-71
2021/09/10 03:41:24;;;;;;;11.27;6.72;;;13.30;94.40;;;;;;5076473;28;20028;-73
2021/09/10 03:43:52;;;;;;;11.32;6.13;;;13.30;94.20;;;;;;5076389;28;20095;-72
2021/09/10 03:46:22;;;;;;;13.95;7.07;;;13.30;94.40;;;;;;5076399;28;20473;-73
2021/09/10 03:48:49;;;;;;;16.00;6.95;;;13.30;95.10;;;;;;5058298;28;20063;-72
2021/09/10 03:51:15;;;;;;;15.02;6.05;;;13.30;95.20;;;;;;5058274;28;20029;-72
2021/09/10 03:53:42;;;;;;;13.13;6.63;;;13.30;95.60;;;;;;5076481;28;20029;-73
2021/09/10 03:56:08;;;;;;;13.63;6.85;;;13.30;95.70;;;;;;5076227;28;20035;-72
2021/09/10 03:58:35;;;;;;;14.07;7.05;;;13.40;96.50;;;;;;5057760;28;20036;-73
2021/09/10 04:01:01;;;;;;;12.95;7.18;;;13.40;97.10;;;;;;5076066;28;20036;-74
2021/09/10 04:03:27;;;;;;;16.15;7.20;;;13.40;97.30;;;;;;5076021;28;20099;-72
2021/09/10 04:05:52;;;;;;;12.73;6.43;;;13.40;97.20;;;;;;5076353;28;20569;-74
2021/09/10 04:08:18;;;;;;;10.88;6.55;;;13.40;97.20;;;;;;5058032;28;20046;-73
2021/09/10 04:10:44;;;;;;;11.15;6.38;;;13.40;97.60;;;;;;5075912;28;20058;-75
2021/09/10 04:13:11;;;;;;;12.30;7.22;;;13.40;97.80;;;;;;5075777;28;20048;-75
2021/09/10 04:15:37;;;;;;;20.17;7.25;;;13.40;98.20;;;;;;5075845;28;20089;-72
2021/09/10 04:18:04;;;;;;;18.52;7.65;;;13.30;98.20;;;;;;5075726;28;20126;-72
2021/09/10 04:20:30;;;;;;;14.63;6.82;;;13.30;98.50;;;;;;5057793;28;20365;-72
2021/09/10 04:22:56;;;;;;;18.85;7.20;;;13.40;98.40;;;;;;5057686;28;20020;-73
2021/09/10 04:25:22;;;;;;;17.02;8.38;;;13.40;98.30;;;;;;5054082;28;20138;-73
2021/09/10 04:27:48;;;;;;;24.20;7.85;;;13.50;97.90;;;;;;5055698;28;20180;-73
2021/09/10 04:30:14;;;;;;;15.50;8.20;;;13.50;98.30;;;;;;5055602;28;20017;-73
2021/09/10 04:32:40;;;;;;;26.70;8.60;;;13.50;98.60;;;;;;5054203;28;20115;-73
2021/09/10 04:35:07;;;;;;;16.02;7.80;;;13.40;98.60;;;;;;5054565;28;20108;-72
2021/09/10 04:37:33;;;;;;;12.50;7.45;;;13.30;99.10;;;;;;5055349;28;20033;-72
2021/09/10 04:40:00;;;;;;;16.25;8.10;;;13.20;99.40;;;;;;5054079;28;20036;-74
2021/09/10 04:42:27;;;;;;;16.27;8.18;;;13.20;99.90;;;;;;5055355;28;20025;-73
2021/09/10 04:44:53;;;;;;;16.77;8.02;;;13.10;99.90;;;;;;5053971;28;20029;-73
2021/09/10 04:47:19;;;;;;;24.58;9.32;;;13.10;99.90;;;;;;5055240;28;20099;-74
2021/09/10 04:49:45;;;;;;;19.92;9.77;;;13.10;99.90;;;;;;5053701;28;20055;-71
2021/09/10 04:52:11;;;;;;;24.50;10.05;;;13.10;99.90;;;;;;5055172;28;20028;-74
2021/09/10 04:54:37;;;;;;;17.85;10.52;;;13.10;99.90;;;;;;5055408;28;20040;-72
2021/09/10 04:57:04;;;;;;;15.40;9.45;;;13.20;99.90;;;;;;5053762;28;20575;-73
2021/09/10 04:59:30;;;;;;;21.70;9.52;;;13.30;99.90;;;;;;5054908;28;20036;-74
2021/09/10 05:01:56;;;;;;;29.15;9.43;;;13.40;99.90;;;;;;5054875;28;20025;-73
2021/09/10 05:04:24;;;;;;;18.90;9.73;;;13.40;99.90;;;;;;5053266;28;20117;-73
2021/09/10 05:06:50;;;;;;;21.92;11.90;;;13.40;99.90;;;;;;5053536;28;20056;-72
2021/09/10 05:09:16;;;;;;;27.50;11.95;;;13.40;99.90;;;;;;5053551;28;20055;-72
2021/09/10 05:11:42;;;;;;;21.95;10.70;;;13.50;99.90;;;;;;5053517;28;20029;-72
2021/09/10 05:14:09;;;;;;;37.28;12.23;;;13.60;99.90;;;;;;5053399;28;20362;-74
2021/09/10 05:16:36;;;;;;;30.40;9.60;;;13.70;99.90;;;;;;5054722;28;20021;-73
2021/09/10 05:19:02;;;;;;;24.67;9.75;;;13.70;99.90;;;;;;5053300;28;20485;-72
2021/09/10 05:21:28;;;;;;;24.02;11.88;;;13.70;99.90;;;;;;5053282;28;20037;-73
2021/09/10 05:23:54;;;;;;;21.98;11.70;;;13.70;99.90;;;;;;5054646;28;20029;-74
2021/09/10 05:26:20;;;;;;;20.20;10.70;;;13.70;99.90;;;;;;5052634;28;20045;-74
2021/09/10 05:28:47;;;;;;;21.90;11.65;;;13.60;99.90;;;;;;5054816;28;20040;-73
2021/09/10 05:31:13;;;;;;;18.23;11.38;;;13.50;99.90;;;;;;5053028;28;20358;-72
2021/09/10 05:33:39;;;;;;;18.80;11.32;;;13.50;99.90;;;;;;5052908;28;20033;-73
2021/09/10 05:36:05;;;;;;;19.35;11.00;;;13.50;99.90;;;;;;5053007;28;20025;-73
2021/09/10 05:38:31;;;;;;;27.17;11.50;;;13.60;99.90;;;;;;5052828;28;20029;-75
2021/09/10 05:40:57;;;;;;;24.58;10.35;;;13.70;99.90;;;;;;5053882;28;20392;-73
2021/09/10 05:43:23;;;;;;;21.38;10.75;;;13.80;99.90;;;;;;5052736;28;20025;-75
2021/09/10 05:45:49;;;;;;;25.15;12.32;;;13.80;99.90;;;;;;5052388;28;20029;-72
2021/09/10 05:48:22;;;;;;;26.45;15.88;;;13.90;99.90;;;;;;5052112;28;20052;-71
2021/09/10 05:50:49;;;;;;;32.55;19.92;;;13.90;99.90;;;;;;5053891;28;20021;-72
2021/09/10 05:53:16;;;;;;;20.42;14.07;;;13.90;99.90;;;;;;5053890;28;20039;-75
2021/09/10 05:55:41;;;;;;;16.55;10.82;;;13.90;99.90;;;;;;5054178;28;20021;-73
2021/09/10 05:58:10;;;;;;;19.15;11.10;;;14.00;99.90;;;;;;5052463;28;20405;-72
2021/09/10 06:00:37;;;;;;;21.20;11.57;;;14.00;99.90;;;;;;5053640;28;20037;-71
2021/09/10 06:03:04;;;;;;;25.52;13.13;;;14.10;99.90;;;;;;5053722;28;20036;-72
2021/09/10 06:05:30;;;;;;;43.17;20.98;;;14.20;99.90;;;;;;5053693;28;20056;-72
2021/09/10 06:07:56;;;;;;;36.88;19.70;;;14.30;99.90;;;;;;5052311;28;20079;-74
2021/09/10 06:10:22;;;;;;;35.63;19.98;;;14.40;99.90;;;;;;5052358;28;20025;-72
2021/09/10 06:12:49;;;;;;;25.63;14.07;;;14.50;99.90;;;;;;5052301;28;20469;-72
2021/09/10 06:15:15;;;;;;;14.73;9.10;;;14.50;99.90;;;;;;5052251;28;20052;-74
2021/09/10 06:17:42;;;;;;;20.45;9.80;;;14.70;99.90;;;;;;5052069;28;20033;-73
2021/09/10 06:20:08;;;;;;;22.00;10.80;;;14.80;99.90;;;;;;5053078;28;20106;-73
2021/09/10 06:22:34;;;;;;;19.95;10.07;;;14.90;99.90;;;;;;5049717;28;20385;-75
2021/09/10 06:25:02;;;;;;;14.98;9.85;;;15.00;99.90;;;;;;5052517;28;20021;-77
2021/09/10 06:27:29;;;;;;;16.02;10.05;;;;;;;;;;5054985;28;20044;-74
2021/09/10 06:29:54;;;;;;;17.95;10.27;;;15.10;99.90;;;;;;5073345;28;20025;-70
2021/09/10 06:32:20;;;;;;;20.20;10.43;;;15.30;99.90;;;;;;5073525;28;20082;-73
2021/09/10 06:34:46;;;;;;;19.30;10.63;;;15.40;99.90;;;;;;5055210;28;20377;-74
2021/09/10 06:37:12;;;;;;;19.77;10.50;;;15.50;99.90;;;;;;5073281;28;20025;-73
2021/09/10 06:39:38;;;;;;;17.13;9.52;;;15.50;99.90;;;;;;5073029;28;20553;-75
2021/09/10 06:42:04;;;;;;;16.25;9.52;;;15.70;99.90;;;;;;5055236;28;20028;-72
2021/09/10 06:44:30;;;;;;;23.40;7.97;;;;;;;;;;5055105;28;20028;-71
2021/09/10 06:46:57;;;;;;;13.80;7.20;;;;;;;;;;5072839;28;20027;-71
2021/09/10 06:49:22;;;;;;;17.23;6.18;;;16.10;99.90;;;;;;5073018;28;20024;-72
2021/09/10 06:51:48;;;;;;;17.83;6.28;;;;;;;;;;5054991;28;20392;-72
2021/09/10 06:54:15;;;;;;;14.63;6.30;;;;;;;;;;5072767;28;20056;-73
2021/09/10 06:56:40;;;;;;;15.40;7.20;;;16.80;99.90;;;;;;5055008;28;20111;-70
2021/09/10 06:59:07;;;;;;;14.35;6.22;;;;;;;;;;5054452;28;20119;-75
2021/09/10 07:01:35;;;;;;;16.08;7.97;;;;;;;;;;5054954;28;20082;-74
2021/09/10 07:04:01;;;;;;;16.38;7.82;;;17.20;94.50;;;;;;5054797;28;20028;-72
2021/09/10 07:06:30;;;;;;;14.73;7.40;;;17.20;93.10;;;;;;5054809;28;20025;-74
2021/09/10 07:08:57;;;;;;;14.70;7.38;;;17.20;93.30;;;;;;5072739;28;20029;-75
2021/09/10 07:11:23;;;;;;;13.32;7.35;;;17.20;92.90;;;;;;5054393;28;20082;-75
2021/09/10 07:13:49;;;;;;;17.08;6.97;;;17.30;92.90;;;;;;5072554;28;20032;-73
2021/09/10 07:16:15;;;;;;;14.88;6.65;;;17.40;93.00;;;;;;5072578;28;20070;-73
2021/09/10 07:18:42;;;;;;;13.68;6.63;;;17.40;91.80;;;;;;5054453;28;20078;-74
2021/09/10 07:21:08;;;;;;;18.00;7.63;;;17.50;91.10;;;;;;5072916;28;20029;-75
2021/09/10 07:23:34;;;;;;;12.40;6.38;;;17.60;91.70;;;;;;5054701;28;20028;-75
2021/09/10 07:26:03;;;;;;;16.55;6.85;;;17.70;91.00;;;;;;5054357;28;20055;-74
2021/09/10 07:28:31;;;;;;;17.10;6.32;;;17.80;90.90;;;;;;5054650;28;20025;-74
2021/09/10 07:30:57;;;;;;;14.75;6.85;;;18.00;90.40;;;;;;5072649;28;20064;-74
2021/09/10 07:33:24;;;;;;;14.10;7.32;;;18.10;90.60;;;;;;5054502;28;20032;-73
2021/09/10 07:35:49;;;;;;;16.25;7.63;;;18.30;90.60;;;;;;5072463;28;20052;-73
2021/09/10 07:38:15;;;;;;;18.58;5.80;;;18.30;89.60;;;;;;5072500;28;20114;-73
2021/09/10 07:40:41;;;;;;;13.13;6.75;;;18.50;88.40;;;;;;5054284;28;20485;-74
2021/09/10 07:43:07;;;;;;;12.73;6.72;;;18.60;88.40;;;;;;5072284;28;20025;-73
2021/09/10 07:45:33;;;;;;;10.93;5.50;;;18.80;88.00;;;;;;5072486;28;20107;-74
2021/09/10 07:47:59;;;;;;;12.80;5.85;;;;;;;;;;5072263;28;20029;-73
2021/09/10 07:50:25;;;;;;;12.32;5.25;;;19.10;90.40;;;;;;5054555;28;20349;-76
2021/09/10 07:52:51;;;;;;;13.98;6.80;;;19.10;83.70;;;;;;5072375;28;20056;-75
2021/09/10 07:55:17;;;;;;;13.73;6.15;;;19.30;87.30;;;;;;5054357;28;20488;-74
2021/09/10 07:57:42;;;;;;;21.75;6.63;;;19.40;84.80;;;;;;5054209;28;20028;-74
2021/09/10 08:00:08;;;;;;;13.88;7.00;;;19.60;86.70;;;;;;5054142;28;20127;-74
2021/09/10 08:02:37;;;;;;;17.10;7.07;;;19.70;85.80;;;;;;5054235;28;20126;-76
2021/09/10 08:05:03;;;;;;;18.30;7.53;;;19.90;85.40;;;;;;5053881;28;20024;-73
2021/09/10 08:07:29;;;;;;;13.73;6.75;;;20.20;82.30;;;;;;5071434;28;20033;-74
2021/09/10 08:09:55;;;;;;;16.17;8.48;;;20.20;82.30;;;;;;5072263;28;20098;-73
2021/09/10 08:12:21;;;;;;;16.80;7.97;;;20.50;82.20;;;;;;5075655;28;20035;-74
2021/09/10 08:14:48;;;;;;;22.58;8.80;;;20.60;82.70;;;;;;5075547;28;20074;-74
2021/09/10 08:17:14;;;;;;;16.38;7.25;;;20.70;81.90;;;;;;5060052;28;20111;-72
2021/09/10 08:19:40;;;;;;;13.55;7.75;;;20.90;82.50;;;;;;5086214;28;20120;-72
2021/09/10 08:22:05;;;;;;;16.23;7.22;;;21.00;81.30;;;;;;5077283;28;20043;-71
2021/09/10 08:24:31;;;;;;;17.42;7.80;;;21.10;80.60;;;;;;5075913;28;20036;-71
2021/09/10 08:26:57;;;;;;;15.82;7.13;;;21.20;79.60;;;;;;5094232;28;20540;-75
2021/09/10 08:29:23;;;;;;;20.48;7.47;;;21.40;79.30;;;;;;5095120;28;20153;-72
2021/09/10 08:31:49;;;;;;;25.08;7.18;;;21.50;78.50;;;;;;5095421;28;20498;-72
2021/09/10 08:34:15;;;;;;;24.50;7.32;;;21.60;79.90;;;;;;5076961;28;20020;-72
2021/09/10 08:36:41;;;;;;;13.68;6.55;;;21.80;80.80;;;;;;5077063;28;20024;-71
2021/09/10 08:39:07;;;;;;;21.70;6.88;;;21.90;79.70;;;;;;5095156;28;20035;-72
2021/09/10 08:41:34;;;;;;;14.05;6.85;;;22.10;79.00;;;;;;5095251;28;20024;-71
2021/09/10 08:44:04;;;;;;;17.52;6.38;;;22.20;78.60;;;;;;5076767;28;20032;-72
2021/09/10 08:46:30;;;;;;;13.02;6.22;;;22.40;76.50;;;;;;5077011;28;20056;-71
2021/09/10 08:48:56;;;;;;;13.40;6.32;;;22.50;74.90;;;;;;5095319;28;20028;-71
2021/09/10 08:51:22;;;;;;;15.25;6.40;;;22.80;90.00;;;;;;5095275;28;20082;-72
2021/09/10 08:53:48;;;;;;;18.27;6.38;;;22.80;75.00;;;;;;5095283;28;20028;-72
2021/09/10 08:56:15;;;;;;;9.57;5.57;;;22.90;74.10;;;;;;5077022;28;20427;-74
2021/09/10 08:58:41;;;;;;;10.13;5.43;;;23.10;73.70;;;;;;5076438;28;20115;-74
2021/09/10 09:01:07;;;;;;;14.10;5.47;;;23.30;71.90;;;;;;5095274;28;20445;-74
2021/09/10 09:03:34;;;;;;;16.83;5.18;;;23.50;71.50;;;;;;5094730;28;20048;-73
2021/09/10 09:06:01;;;;;;;8.55;4.82;;;23.60;71.20;;;;;;5094886;28;20078;-73
2021/09/10 09:08:27;;;;;;;9.85;4.95;;;23.80;68.00;;;;;;5094947;28;20036;-77
2021/09/10 09:11:09;;;;;;;14.23;5.00;;;24.00;70.50;;;;;;5076768;28;20114;-76
2021/09/10 09:13:39;;;;;;;11.32;4.43;;;;;;;;;;5076874;28;20034;-75
2021/09/10 09:16:12;;;;;;;18.85;4.93;;;;;;;;;;5095331;28;20043;-74
2021/09/10 09:18:42;;;;;;;10.50;5.38;;;;;;;;;;5066607;28;20025;-78
2021/09/10 09:21:08;;;;;;;14.13;4.70;;;;;;;;;;5056534;28;20086;-79
2021/09/10 09:23:35;;;;;;;19.70;4.72;;;;;;;;;;5074841;28;20024;-78
2021/09/10 09:26:01;;;;;;;12.82;4.75;;;;;;;;;;5056160;28;20378;-79
2021/09/10 09:28:28;;;;;;;8.52;4.95;;;;;;;;;;5073979;28;20104;-79
2021/09/10 09:30:56;;;;;;;11.88;4.75;;;;;;;;;;5057778;28;20084;-77
2021/09/10 09:33:26;;;;;;;10.25;5.18;;;24.40;69.40;;;;;;5061220;28;20024;-75
2021/09/10 09:35:56;;;;;;;13.52;5.63;;;25.60;65.60;;;;;;5079260;28;20460;-77
2021/09/10 09:38:25;;;;;;;14.35;5.35;;;25.60;66.60;;;;;;5096622;28;20092;-76
2021/09/10 09:40:53;;;;;;;14.05;5.40;;;25.70;65.70;;;;;;5080392;28;20074;-78
2021/09/10 09:43:22;;;;;;;20.27;5.38;;;25.80;66.30;;;;;;5079291;28;20028;-77
2021/09/10 09:45:50;;;;;;;8.65;5.07;;;25.80;64.30;;;;;;5097053;28;20020;-77
2021/09/10 09:48:17;;;;;;;30.48;5.70;;;25.90;64.70;;;;;;5097466;28;20024;-77
2021/09/10 09:50:44;;;;;;;14.65;5.40;;;26.00;63.10;;;;;;5078770;28;20032;-78
2021/09/10 09:53:12;;;;;;;5.43;3.85;;;26.00;62.90;;;;;;5075869;28;20058;-78
2021/09/10 09:55:39;;;;;;;11.15;5.07;;;26.40;62.00;;;;;;5075978;28;20383;-78
2021/09/10 09:58:06;;;;;;;13.65;5.00;;;26.50;63.50;;;;;;5075950;28;20028;-77
2021/09/10 10:00:38;;;;;;;9.20;4.78;;;26.50;63.50;;;;;;5075806;28;20074;-78
2021/09/10 10:03:05;;;;;;;7.97;4.50;;;26.60;63.70;;;;;;5094115;28;20024;-78
2021/09/10 10:05:32;;;;;;;11.23;4.28;;;;;;;;;;5075706;28;20460;-74
2021/09/10 10:08:05;;;;;;;8.25;4.32;;;26.90;62.20;;;;;;5075848;28;20056;-76
2021/09/10 10:11:05;;;;;;;6.07;3.63;;;27.10;61.90;;;;;;5075645;28;20024;-78
2021/09/10 10:13:32;;;;;;;7.25;2.83;;;27.20;60.30;;;;;;5075335;28;20085;-77
2021/09/10 10:16:04;;;;;;;8.68;3.50;;;27.40;59.00;;;;;;5093906;28;20023;-77
2021/09/10 10:18:43;;;;;;;8.38;2.80;;;27.70;58.10;;;;;;5093877;28;20025;-77
2021/09/10 10:21:12;;;;;;;4.20;2.38;;;28.10;56.90;;;;;;5075399;28;20032;-77
2021/09/10 10:23:44;;;;;;;4.75;2.80;;;28.30;55.10;;;;;;5075437;28;20546;-76
2021/09/10 10:26:39;;;;;;;13.50;3.45;;;28.90;55.10;;;;;;5071748;28;20056;-79
2021/09/10 10:29:11;;;;;;;4.50;2.67;;;29.90;54.50;;;;;;5072005;28;20105;-78
2021/09/10 10:31:59;;;;;;;10.10;2.95;;;30.80;54.40;;;;;;5073612;28;20035;-78
2021/09/10 10:34:26;;;;;;;6.22;2.78;;;;;;;;;;5071655;28;20028;-78
2021/09/10 10:36:52;;;;;;;6.93;3.10;;;;;;;;;;5073205;28;20024;-79
2021/09/10 10:39:27;;;;;;;8.63;3.00;;;31.40;51.40;;;;;;5072048;28;20020;-78
2021/09/10 10:41:58;;;;;;;8.50;2.97;;;33.30;48.50;;;;;;5072976;28;20487;-76
2021/09/10 10:44:30;;;;;;;6.88;2.85;;;;;;;;;;5071766;28;20064;-79
2021/09/10 10:47:11;;;;;;;7.32;3.10;;;33.40;49.10;;;;;;5071727;28;20389;-78
2021/09/10 10:49:44;;;;;;;5.90;2.90;;;;;;;;;;5073311;28;20062;-80
2021/09/10 10:52:29;;;;;;;6.50;3.05;;;;;;;;;;5071903;28;20270;-78
2021/09/10 10:55:31;;;;;;;6.25;3.17;;;34.20;47.50;;;;;;5071609;28;20108;-77
2021/09/10 10:58:23;;;;;;;10.65;3.47;;;35.50;45.70;;;;;;5073351;28;20033;-77
2021/09/10 11:00:52;;;;;;;;;;;36.10;45.90;;;;;;5072250;28;20036;-76
2021/09/10 11:03:18;;;;;;;6.95;3.15;;;36.80;44.50;;;;;;5071690;28;20015;-81
2021/09/10 11:05:46;;;;;;;4.97;2.40;;;37.40;44.00;;;;;;5071777;28;20025;-78
2021/09/10 11:08:17;;;;;;;6.72;3.05;;;37.30;43.80;;;;;;5071954;28;20086;-79
2021/09/10 11:10:43;;;;;;;6.70;2.67;;;37.50;43.40;;;;;;5071819;28;20025;-78
2021/09/10 11:13:09;;;;;;;6.28;2.65;;;37.70;42.20;;;;;;5072870;28;20098;-79
2021/09/10 11:15:36;;;;;;;6.53;3.20;;;37.90;43.00;;;;;;5072887;28;20021;-79
2021/09/10 11:18:04;;;;;;;5.78;2.78;;;38.00;40.60;;;;;;5074174;28;20082;-77
2021/09/10 11:20:48;;;;;;;5.93;2.70;;;38.40;40.70;;;;;;5073109;28;20107;-78
2021/09/10 11:23:25;;;;;;;10.45;3.10;;;39.00;40.30;;;;;;5072795;28;20119;-77
2021/09/10 11:25:53;;;;;;;5.95;2.70;;;39.30;40.00;;;;;;5071917;28;20076;-78
2021/09/10 11:28:21;;;;;;;5.47;2.55;;;39.30;41.10;;;;;;5071542;28;20131;-77
2021/09/10 11:30:50;;;;;;;5.18;2.45;;;39.20;40.00;;;;;;5072919;28;20032;-78
2021/09/10 11:33:17;;;;;;;6.90;2.70;;;39.20;39.40;;;;;;5071491;28;20025;-77
2021/09/10 11:35:44;;;;;;;11.85;2.92;;;38.60;39.60;;;;;;5072155;28;20055;-75
2021/09/10 11:38:17;;;;;;;4.75;2.50;;;38.40;40.90;;;;;;5072323;28;20098;-75
2021/09/10 11:40:54;;;;;;;9.10;2.50;;;38.80;40.10;;;;;;5071115;28;20113;-75
2021/09/10 11:43:24;;;;;;;4.50;2.75;;;39.50;39.90;;;;;;5070873;28;20186;-73
2021/09/10 11:45:59;;;;;;;7.10;2.95;;;40.00;39.20;;;;;;5074862;28;20074;-77
2021/09/10 11:48:30;;;;;;;5.65;2.40;;;39.90;39.40;;;;;;5074793;28;20468;-74
2021/09/10 11:51:03;;;;;;;11.18;3.15;;;39.70;38.50;;;;;;5076181;28;20020;-74
2021/09/10 11:53:47;;;;;;;6.45;3.13;;;40.10;39.70;;;;;;5074496;28;20135;-73
2021/09/10 11:56:20;;;;;;;6.07;2.63;;;39.80;39.30;;;;;;5074399;28;20020;-73
2021/09/10 11:58:46;;;;;;;6.13;2.58;;;40.10;38.60;;;;;;5074508;28;20024;-73
2021/09/10 12:01:36;;;;;;;10.73;2.92;;;40.60;38.50;;;;;;5075784;28;20029;-73
2021/09/10 12:04:07;;;;;;;4.13;2.70;;;;;;;;;;5073272;28;20028;-75
2021/09/10 12:06:34;;;;;;;;;;;41.00;39.20;;;;;;5074900;28;20455;-72
2021/09/10 12:09:19;;;;;;;4.55;2.45;;;41.30;36.80;;;;;;5075547;28;19908;-76
2021/09/10 12:12:04;;;;;;;11.35;2.80;;;41.80;37.20;;;;;;5074380;28;20793;-73
2021/09/10 12:14:35;;;;;;;8.10;3.00;;;;;;;;;;5075854;28;20029;-74
2021/09/10 12:17:05;;;;;;;7.05;2.67;;;;;;;;;;5060709;28;20476;-72
2021/09/10 12:19:31;;;;;;;4.07;2.60;;;42.30;36.60;;;;;;5055215;28;20058;-71
2021/09/10 12:21:57;;;;;;;6.78;2.55;;;43.40;36.30;;;;;;5054270;28;20131;-74
2021/09/10 12:24:22;;;;;;;12.27;3.15;;;44.00;35.70;;;;;;5054131;28;20420;-71
2021/09/10 12:26:52;;;;;;;4.35;2.85;;;43.60;35.90;;;;;;5070594;28;20052;-70
2021/09/10 12:29:28;;;;;;;5.95;2.28;;;44.20;35.70;;;;;;5075467;28;20025;-72
2021/09/10 12:31:55;;;;;;;5.28;2.45;;;43.40;35.00;;;;;;5075262;28;20123;-72
2021/09/10 12:34:22;;;;;;;7.15;2.55;;;43.70;35.60;;;;;;5057288;28;20029;-72
2021/09/10 12:36:48;;;;;;;5.60;2.55;;;43.50;35.80;;;;;;5056997;28;20033;-73
2021/09/10 12:39:15;;;;;;;4.00;2.97;;;43.40;36.20;;;;;;5075115;28;20028;-72
2021/09/10 12:41:44;;;;;;;3.13;2.72;;;43.60;35.70;;;;;;5074802;28;20060;-72
2021/09/10 12:44:10;;;;;;;7.00;3.08;;;43.40;35.70;;;;;;5057022;28;20025;-72
2021/09/10 12:46:39;;;;;;;7.65;3.22;;;43.20;35.30;;;;;;5057076;28;20046;-72
2021/09/10 12:49:07;;;;;;;7.47;2.60;;;43.40;35.20;;;;;;5075208;28;20036;-71
2021/09/10 12:51:33;;;;;;;5.88;2.50;;;44.20;35.50;;;;;;5075283;28;20039;-74
2021/09/10 12:53:59;;;;;;;6.53;2.90;;;44.00;35.00;;;;;;5075029;28;20025;-70
2021/09/10 12:56:25;;;;;;;3.92;2.85;;;44.10;35.40;;;;;;5074016;28;20449;-70
2021/09/10 12:58:51;;;;;;;5.72;2.47;;;44.20;35.00;;;;;;5074772;28;20029;-72
2021/09/10 13:01:17;;;;;;;4.50;2.45;;;44.10;34.40;;;;;;5056813;28;20024;-71
2021/09/10 13:03:43;;;;;;;4.22;2.47;;;44.70;34.50;;;;;;5074700;28;20024;-71
2021/09/10 13:06:09;;;;;;;4.68;2.72;;;44.70;34.10;;;;;;5075219;28;20372;-72